EZY1012 GMMN-LFPG
Flight info
| Callsign | EZY1012 |
|---|---|
| Flight time | N/A |
| Altitude | 36000 |
| Route | TOLSI UG5 KORIS DCT XULIM DCT VJF DCT SVL DCT HIJ DCT RUSEM DCT SOTUK DCT USOKO DCT TLD DCT SIE DCT EDIGO DCT DGO N858 ABRIX DCT CNA/N0404F300 DCT POI DCT PEPAX UT182 KEPER |
| Aircraft | A320/M-SDE3FGHIRWY/LB1 |
Departure
| Time | 2026-04-29 10:10 |
|---|---|
| Airport | Mohammed V International Airport (GMMN) |
Arrival
| Time | N/A |
|---|---|
| Airport | Charles de Gaulle International Airport (LFPG) |
| Time | Latitude | Longitude | Altitude | Speed | Heading |
|---|---|---|---|---|---|
| 2026-04-29 09:42 | 33.37257 | -7.58220 | 650 ft | 0 kts | 75° |
| 2026-04-29 10:01 | 33.37256 | -7.58223 | 649 ft | 3 kts | 75° |
| 2026-04-29 10:02 | 33.37250 | -7.58253 | 649 ft | 4 kts | 84° |
| 2026-04-29 10:02 | 33.37250 | -7.58285 | 649 ft | 4 kts | 104° |
| 2026-04-29 10:02 | 33.37254 | -7.58301 | 649 ft | 0 kts | 115° |
| 2026-04-29 10:04 | 33.37248 | -7.58296 | 649 ft | 4 kts | 142° |
| 2026-04-29 10:04 | 33.37200 | -7.58299 | 649 ft | 11 kts | 181° |
| 2026-04-29 10:04 | 33.37100 | -7.58270 | 650 ft | 17 kts | 164° |
| 2026-04-29 10:04 | 33.36983 | -7.58233 | 653 ft | 16 kts | 176° |
| 2026-04-29 10:05 | 33.36925 | -7.58329 | 653 ft | 15 kts | 253° |
| 2026-04-29 10:05 | 33.36889 | -7.58447 | 652 ft | 15 kts | 230° |
| 2026-04-29 10:05 | 33.36798 | -7.58445 | 651 ft | 13 kts | 163° |
| 2026-04-29 10:05 | 33.36698 | -7.58410 | 651 ft | 17 kts | 164° |
| 2026-04-29 10:06 | 33.36581 | -7.58370 | 652 ft | 18 kts | 164° |
| 2026-04-29 10:06 | 33.36460 | -7.58329 | 652 ft | 18 kts | 164° |
| 2026-04-29 10:06 | 33.36335 | -7.58286 | 653 ft | 19 kts | 164° |
| 2026-04-29 10:06 | 33.36203 | -7.58241 | 653 ft | 20 kts | 165° |
| 2026-04-29 10:07 | 33.36065 | -7.58194 | 654 ft | 21 kts | 164° |
| 2026-04-29 10:07 | 33.35921 | -7.58145 | 654 ft | 22 kts | 164° |
| 2026-04-29 10:07 | 33.35772 | -7.58094 | 655 ft | 23 kts | 164° |
| 2026-04-29 10:07 | 33.35617 | -7.58041 | 656 ft | 24 kts | 164° |
| 2026-04-29 10:08 | 33.35457 | -7.57986 | 656 ft | 24 kts | 163° |
| 2026-04-29 10:08 | 33.35326 | -7.57943 | 657 ft | 14 kts | 174° |
| 2026-04-29 10:08 | 33.35254 | -7.58003 | 657 ft | 12 kts | 246° |
| 2026-04-29 10:08 | 33.35231 | -7.58098 | 657 ft | 14 kts | 253° |
| 2026-04-29 10:09 | 33.35212 | -7.58224 | 658 ft | 15 kts | 285° |
| 2026-04-29 10:09 | 33.35299 | -7.58289 | 659 ft | 17 kts | 343° |
| 2026-04-29 10:09 | 33.35594 | -7.58390 | 654 ft | 79 kts | 344° |
| 2026-04-29 10:09 | 33.36327 | -7.58641 | 656 ft | 137 kts | 344° |
| 2026-04-29 10:10 | 33.37395 | -7.59003 | 735 ft | 174 kts | 345° |
| 2026-04-29 10:10 | 33.38554 | -7.59397 | 1382 ft | 174 kts | 345° |
| 2026-04-29 10:10 | 33.39723 | -7.59783 | 2051 ft | 177 kts | 345° |
| 2026-04-29 10:10 | 33.40991 | -7.60022 | 2367 ft | 196 kts | 357° |
| 2026-04-29 10:11 | 33.42418 | -7.59894 | 2623 ft | 217 kts | 11° |
| 2026-04-29 10:11 | 33.43915 | -7.59293 | 2968 ft | 232 kts | 26° |
| 2026-04-29 10:11 | 33.45274 | -7.58229 | 3475 ft | 236 kts | 40° |
| 2026-04-29 10:11 | 33.46376 | -7.56751 | 3970 ft | 240 kts | 51° |
| 2026-04-29 10:12 | 33.47430 | -7.55153 | 4523 ft | 248 kts | 51° |
| 2026-04-29 10:12 | 33.48530 | -7.53533 | 5197 ft | 253 kts | 51° |
| 2026-04-29 10:12 | 33.49665 | -7.51891 | 5926 ft | 258 kts | 50° |
| 2026-04-29 10:12 | 33.50809 | -7.50250 | 6666 ft | 262 kts | 50° |
| 2026-04-29 10:13 | 33.51984 | -7.48557 | 7439 ft | 266 kts | 50° |
| 2026-04-29 10:13 | 33.53177 | -7.46835 | 8220 ft | 270 kts | 50° |
| 2026-04-29 10:13 | 33.54385 | -7.45090 | 8995 ft | 274 kts | 50° |
| 2026-04-29 10:13 | 33.55692 | -7.43413 | 9736 ft | 278 kts | 39° |
| 2026-04-29 10:14 | 33.57332 | -7.42171 | 10441 ft | 284 kts | 24° |
| 2026-04-29 10:14 | 33.59291 | -7.41475 | 10690 ft | 305 kts | 7° |
| 2026-04-29 10:14 | 33.61461 | -7.41081 | 10914 ft | 326 kts | 7° |
| 2026-04-29 10:14 | 33.63769 | -7.40659 | 11236 ft | 344 kts | 7° |
| 2026-04-29 10:15 | 33.66156 | -7.40213 | 11855 ft | 350 kts | 8° |
| 2026-04-29 10:15 | 33.68571 | -7.39754 | 12554 ft | 353 kts | 8° |
| 2026-04-29 10:15 | 33.71011 | -7.39282 | 13247 ft | 357 kts | 8° |
| 2026-04-29 10:15 | 33.73471 | -7.38804 | 13906 ft | 360 kts | 7° |
| 2026-04-29 10:16 | 33.75953 | -7.38326 | 14548 ft | 363 kts | 7° |
| 2026-04-29 10:16 | 33.77609 | -7.38014 | 14970 ft | 365 kts | 7° |
| 2026-04-29 10:16 | 33.80979 | -7.37375 | 15811 ft | 369 kts | 7° |
| 2026-04-29 10:16 | 33.83521 | -7.36886 | 16415 ft | 371 kts | 6° |
| 2026-04-29 10:17 | 33.86080 | -7.36398 | 16992 ft | 374 kts | 6° |
| 2026-04-29 10:17 | 33.88661 | -7.35901 | 17554 ft | 377 kts | 6° |
| 2026-04-29 10:17 | 33.91263 | -7.35394 | 18127 ft | 380 kts | 6° |
| 2026-04-29 10:17 | 33.92112 | -7.35227 | 18308 ft | 381 kts | 6° |